createdAt,value
2018-10-12T00:00:30.651Z,1008.57
2018-10-12T00:01:06.140Z,1008.58
2018-10-12T00:01:41.340Z,1008.58
2018-10-12T00:02:16.973Z,1008.56
2018-10-12T00:02:52.174Z,1008.57
2018-10-12T00:03:27.720Z,1008.58
2018-10-12T00:04:03.119Z,1008.61
2018-10-12T00:04:38.338Z,1008.59
2018-10-12T00:05:13.584Z,1008.59
2018-10-12T00:05:48.970Z,1008.62
2018-10-12T00:06:24.657Z,1008.60
2018-10-12T00:06:59.885Z,1008.62
2018-10-12T00:07:35.082Z,1008.61
2018-10-12T00:08:10.522Z,1008.59
2018-10-12T00:08:46.129Z,1008.63
2018-10-12T00:09:21.471Z,1008.62
2018-10-12T00:09:56.480Z,1008.62
2018-10-12T00:10:31.951Z,1008.64
2018-10-12T00:11:06.981Z,1008.63
2018-10-12T00:11:42.421Z,1008.64
2018-10-12T00:12:17.939Z,1008.65
2018-10-12T00:12:53.312Z,1008.64
2018-10-12T00:13:29.029Z,1008.66
2018-10-12T00:14:05.155Z,1008.66
2018-10-12T00:14:40.502Z,1008.63
2018-10-12T00:15:16.060Z,1008.65
2018-10-12T00:15:51.502Z,1008.68
2018-10-12T00:16:26.846Z,1008.62
2018-10-12T00:17:02.075Z,1008.62
2018-10-12T00:17:37.433Z,1008.65
2018-10-12T00:18:12.777Z,1008.64
2018-10-12T00:18:48.492Z,1008.68
2018-10-12T00:19:23.904Z,1008.66
2018-10-12T00:19:59.361Z,1008.63
2018-10-12T00:20:35.343Z,1008.69
2018-10-12T00:21:10.673Z,1008.63
2018-10-12T00:21:46.719Z,1008.62
2018-10-12T00:22:22.063Z,1008.66
2018-10-12T00:22:57.411Z,1008.64
2018-10-12T00:23:32.937Z,1008.65
2018-10-12T00:24:08.145Z,1008.63
2018-10-12T00:24:43.496Z,1008.65
2018-10-12T00:25:20.125Z,1008.65
2018-10-12T00:25:55.274Z,1008.63
2018-10-12T00:26:30.258Z,1008.65
2018-10-12T00:27:05.619Z,1008.68
2018-10-12T00:27:40.921Z,1008.68
2018-10-12T00:28:16.251Z,1008.63
2018-10-12T00:28:51.808Z,1008.65
2018-10-12T00:29:27.272Z,1008.67
2018-10-12T00:30:02.799Z,1008.64
2018-10-12T00:30:38.360Z,1008.66
2018-10-12T00:31:13.864Z,1008.70
2018-10-12T00:31:49.178Z,1008.69
2018-10-12T00:32:24.588Z,1008.67
2018-10-12T00:32:59.528Z,1008.65
2018-10-12T00:33:35.023Z,1008.68
2018-10-12T00:34:10.478Z,1008.68
2018-10-12T00:34:45.618Z,1008.68
2018-10-12T00:35:20.875Z,1008.68
2018-10-12T00:35:56.295Z,1008.73
2018-10-12T00:36:32.131Z,1008.70
2018-10-12T00:37:07.316Z,1008.70
2018-10-12T00:37:42.478Z,1008.73
2018-10-12T00:38:17.798Z,1008.73
2018-10-12T00:38:53.449Z,1008.73
2018-10-12T00:39:28.951Z,1008.75
2018-10-12T00:40:04.322Z,1008.75
2018-10-12T00:40:39.691Z,1008.75
2018-10-12T00:41:15.321Z,1008.77
2018-10-12T00:41:50.848Z,1008.74
2018-10-12T00:42:26.363Z,1008.75
2018-10-12T00:43:01.695Z,1008.72
2018-10-12T00:43:37.236Z,1008.74
2018-10-12T00:44:13.077Z,1008.78
2018-10-12T00:44:48.289Z,1008.72
2018-10-12T00:45:23.851Z,1008.76
2018-10-12T00:45:59.348Z,1008.72
2018-10-12T00:46:34.910Z,1008.75
2018-10-12T00:47:10.321Z,1008.68
2018-10-12T00:47:46.168Z,1008.72
2018-10-12T00:48:21.553Z,1008.72
2018-10-12T00:48:57.195Z,1008.71
2018-10-12T00:49:33.413Z,1008.70
2018-10-12T00:50:08.866Z,1008.75
2018-10-12T00:50:45.234Z,1008.69
2018-10-12T00:51:20.586Z,1008.68
2018-10-12T00:51:55.995Z,1008.71
2018-10-12T00:52:31.214Z,1008.68
2018-10-12T00:53:06.553Z,1008.70
2018-10-12T00:53:42.186Z,1008.65
2018-10-12T00:54:17.718Z,1008.65
2018-10-12T00:54:53.263Z,1008.65
2018-10-12T00:55:28.708Z,1008.59
2018-10-12T00:56:04.156Z,1008.60
2018-10-12T00:56:39.570Z,1008.62
2018-10-12T00:57:14.745Z,1008.64
2018-10-12T00:57:50.244Z,1008.64
2018-10-12T00:58:25.776Z,1008.67
2018-10-12T00:59:00.892Z,1008.65
2018-10-12T00:59:36.606Z,1008.67
2018-10-12T01:00:12.033Z,1008.72
2018-10-12T01:00:47.302Z,1008.73
2018-10-12T01:01:22.603Z,1008.70
2018-10-12T01:01:58.571Z,1008.75
2018-10-12T01:02:33.992Z,1008.73
2018-10-12T01:03:09.127Z,1008.71
2018-10-12T01:03:44.416Z,1008.73
2018-10-12T01:04:20.238Z,1008.69
2018-10-12T01:04:55.743Z,1008.74
2018-10-12T01:05:31.323Z,1008.70
2018-10-12T01:06:07.168Z,1008.73
2018-10-12T01:06:42.639Z,1008.76
2018-10-12T01:07:18.059Z,1008.73
2018-10-12T01:07:53.477Z,1008.73
2018-10-12T01:08:28.692Z,1008.75
2018-10-12T01:09:04.036Z,1008.75
2018-10-12T01:09:39.358Z,1008.77
2018-10-12T01:10:14.601Z,1008.76
2018-10-12T01:10:49.928Z,1008.73
2018-10-12T01:11:25.505Z,1008.76
2018-10-12T01:12:01.004Z,1008.74
2018-10-12T01:12:36.599Z,1008.75
2018-10-12T01:13:12.195Z,1008.69
2018-10-12T01:13:47.743Z,1008.70
2018-10-12T01:14:23.051Z,1008.72
2018-10-12T01:14:58.278Z,1008.72
2018-10-12T01:15:33.588Z,1008.65
2018-10-12T01:16:09.033Z,1008.67
2018-10-12T01:16:44.298Z,1008.62
2018-10-12T01:17:19.518Z,1008.62
2018-10-12T01:17:55.524Z,1008.60
2018-10-12T01:18:30.812Z,1008.55
2018-10-12T01:19:06.521Z,1008.49
2018-10-12T01:19:42.043Z,1008.49
2018-10-12T01:20:17.356Z,1008.43
2018-10-12T01:20:52.707Z,1008.46
2018-10-12T01:21:27.907Z,1008.48
2018-10-12T01:22:03.292Z,1008.48
2018-10-12T01:22:38.499Z,1008.47
2018-10-12T01:23:14.032Z,1008.51
2018-10-12T01:23:49.368Z,1008.48
2018-10-12T01:24:24.906Z,1008.52
2018-10-12T01:25:00.444Z,1008.54
2018-10-12T01:25:35.880Z,1008.53
2018-10-12T01:26:11.288Z,1008.48
2018-10-12T01:26:46.758Z,1008.54
2018-10-12T01:27:22.278Z,1008.51
2018-10-12T01:27:57.793Z,1008.55
2018-10-12T01:28:33.014Z,1008.54
2018-10-12T01:29:08.368Z,1008.55
2018-10-12T01:29:43.968Z,1008.59
2018-10-12T01:30:19.317Z,1008.58
2018-10-12T01:30:54.745Z,1008.59
2018-10-12T01:31:29.851Z,1008.65
2018-10-12T01:32:05.202Z,1008.64
2018-10-12T01:32:40.547Z,1008.61
2018-10-12T01:33:16.401Z,1008.62
2018-10-12T01:33:51.725Z,1008.59
2018-10-12T01:34:26.881Z,1008.63
2018-10-12T01:35:02.193Z,1008.57
2018-10-12T01:35:37.537Z,1008.59
2018-10-12T01:36:12.758Z,1008.60
2018-10-12T01:36:47.986Z,1008.62
2018-10-12T01:37:23.202Z,1008.58
2018-10-12T01:37:58.658Z,1008.55
2018-10-12T01:38:33.884Z,1008.60
2018-10-12T01:39:09.337Z,1008.61
2018-10-12T01:39:45.074Z,1008.61
2018-10-12T01:40:20.843Z,1008.58
2018-10-12T01:40:56.439Z,1008.60
2018-10-12T01:41:32.316Z,1008.64
2018-10-12T01:42:07.729Z,1008.63
2018-10-12T01:42:43.083Z,1008.68
2018-10-12T01:43:18.498Z,1008.64
2018-10-12T01:43:54.139Z,1008.68
2018-10-12T01:44:29.759Z,1008.67
2018-10-12T01:45:05.183Z,1008.71
2018-10-12T01:45:40.189Z,1008.71
2018-10-12T01:46:15.430Z,1008.72
2018-10-12T01:46:50.650Z,1008.73
2018-10-12T01:47:26.008Z,1008.75
2018-10-12T01:48:01.709Z,1008.77
2018-10-12T01:48:37.543Z,1008.80
2018-10-12T01:49:12.963Z,1008.80
2018-10-12T01:49:48.516Z,1008.81
2018-10-12T01:50:23.811Z,1008.81
2018-10-12T01:50:59.659Z,1008.86
2018-10-12T01:51:35.048Z,1008.84
2018-10-12T01:52:10.322Z,1008.81
2018-10-12T01:52:45.738Z,1008.83
2018-10-12T01:53:21.265Z,1008.79
2018-10-12T01:53:56.666Z,1008.82
2018-10-12T01:54:32.198Z,1008.79
2018-10-12T01:55:07.710Z,1008.84
2018-10-12T01:55:43.056Z,1008.83
2018-10-12T01:56:18.672Z,1008.82
2018-10-12T01:56:53.915Z,1008.79
2018-10-12T01:57:29.224Z,1008.81
2018-10-12T01:58:04.561Z,1008.79
2018-10-12T01:58:39.855Z,1008.81
2018-10-12T01:59:15.219Z,1008.77
2018-10-12T01:59:50.746Z,1008.78
2018-10-12T02:00:26.286Z,1008.80
2018-10-12T02:01:02.203Z,1008.80
2018-10-12T02:01:37.542Z,1008.79
2018-10-12T02:02:12.993Z,1008.79
2018-10-12T02:02:48.765Z,1008.78
2018-10-12T02:03:24.257Z,1008.83
2018-10-12T02:03:59.701Z,1008.81
2018-10-12T02:04:35.900Z,1008.81
2018-10-12T02:05:11.537Z,1008.84
2018-10-12T02:05:46.927Z,1008.83
2018-10-12T02:06:22.298Z,1008.89
2018-10-12T02:06:57.617Z,1008.88
2018-10-12T02:07:32.962Z,1008.87
2018-10-12T02:08:08.416Z,1008.86
2018-10-12T02:08:43.954Z,1008.89
2018-10-12T02:09:19.372Z,1008.90
2018-10-12T02:09:55.089Z,1008.91
2018-10-12T02:10:30.455Z,1008.93
2018-10-12T02:11:05.886Z,1008.92
2018-10-12T02:11:41.401Z,1008.88
2018-10-12T02:12:16.730Z,1008.86
2018-10-12T02:12:52.420Z,1008.88
2018-10-12T02:13:27.952Z,1008.91
2018-10-12T02:14:03.730Z,1008.89
2018-10-12T02:14:39.476Z,1008.87
2018-10-12T02:15:14.927Z,1008.89
2018-10-12T02:15:50.500Z,1008.88
2018-10-12T02:16:25.633Z,1008.90
2018-10-12T02:17:01.180Z,1008.90
2018-10-12T02:17:36.494Z,1008.90
2018-10-12T02:18:12.066Z,1008.89
2018-10-12T02:18:47.261Z,1008.88
2018-10-12T02:19:22.520Z,1008.88
2018-10-12T02:19:57.919Z,1008.82
2018-10-12T02:20:33.418Z,1008.90
2018-10-12T02:21:08.752Z,1008.89
2018-10-12T02:21:44.104Z,1008.91
2018-10-12T02:22:19.827Z,1008.91
2018-10-12T02:22:55.560Z,1008.86
2018-10-12T02:23:31.091Z,1008.90
2018-10-12T02:24:06.409Z,1008.85
2018-10-12T02:24:41.621Z,1008.87
2018-10-12T02:25:16.977Z,1008.91
2018-10-12T02:25:52.547Z,1008.84
2018-10-12T02:26:27.878Z,1008.83
2018-10-12T02:27:03.223Z,1008.84
2018-10-12T02:27:38.875Z,1008.88
2018-10-12T02:28:14.095Z,1008.90
2018-10-12T02:28:49.447Z,1008.85
2018-10-12T02:29:24.767Z,1008.83
2018-10-12T02:30:00.472Z,1008.78
2018-10-12T02:30:35.580Z,1008.80
2018-10-12T02:31:11.361Z,1008.81
2018-10-12T02:31:46.564Z,1008.83
2018-10-12T02:32:21.993Z,1008.84
2018-10-12T02:32:57.529Z,1008.86
2018-10-12T02:33:33.091Z,1008.83
2018-10-12T02:34:08.309Z,1008.87
2018-10-12T02:34:43.733Z,1008.87
2018-10-12T02:35:19.370Z,1008.86
2018-10-12T02:35:55.307Z,1008.89
2018-10-12T02:36:30.649Z,1008.91
2018-10-12T02:37:06.294Z,1008.92
2018-10-12T02:37:41.723Z,1008.85
2018-10-12T02:38:17.255Z,1008.88
2018-10-12T02:38:52.601Z,1008.85
2018-10-12T02:39:28.042Z,1008.88
2018-10-12T02:40:03.561Z,1008.89
2018-10-12T02:40:39.008Z,1008.89
2018-10-12T02:41:14.364Z,1008.93
2018-10-12T02:41:49.887Z,1008.95
2018-10-12T02:42:25.440Z,1008.93
2018-10-12T02:43:00.850Z,1008.97
2018-10-12T02:43:36.179Z,1008.99
2018-10-12T02:44:11.764Z,1008.99
2018-10-12T02:44:47.074Z,1008.94
2018-10-12T02:45:22.179Z,1008.93
2018-10-12T02:45:57.426Z,1008.94
2018-10-12T02:46:33.174Z,1008.95
2018-10-12T02:47:08.506Z,1008.93
2018-10-12T02:47:43.733Z,1008.96
2018-10-12T02:48:18.959Z,1008.94
2018-10-12T02:48:54.315Z,1008.91
2018-10-12T02:49:30.048Z,1008.91
2018-10-12T02:50:05.377Z,1008.91
2018-10-12T02:50:40.887Z,1008.92
2018-10-12T02:51:15.931Z,1008.97
2018-10-12T02:51:51.551Z,1008.95
2018-10-12T02:52:26.987Z,1008.95
2018-10-12T02:53:02.055Z,1008.99
2018-10-12T02:53:37.572Z,1008.97
2018-10-12T02:54:13.226Z,1008.96
2018-10-12T02:54:48.439Z,1008.95
2018-10-12T02:55:23.770Z,1009.01
2018-10-12T02:55:59.301Z,1009.03
2018-10-12T02:56:35.065Z,1009.03
2018-10-12T02:57:10.465Z,1009.05
2018-10-12T02:57:45.946Z,1009.09
2018-10-12T02:58:21.039Z,1009.07
2018-10-12T02:58:56.992Z,1009.11
2018-10-12T02:59:32.420Z,1009.08
2018-10-12T03:00:07.931Z,1009.04
2018-10-12T03:00:43.602Z,1009.11
2018-10-12T03:01:18.901Z,1009.16
2018-10-12T03:01:54.362Z,1009.16
2018-10-12T03:02:29.778Z,1009.19
2018-10-12T03:03:05.631Z,1009.15
2018-10-12T03:03:40.826Z,1009.21
2018-10-12T03:04:16.268Z,1009.22
2018-10-12T03:04:51.811Z,1009.26
2018-10-12T03:05:27.355Z,1009.25
2018-10-12T03:06:02.894Z,1009.20
2018-10-12T03:06:38.123Z,1009.20
2018-10-12T03:07:13.555Z,1009.21
2018-10-12T03:07:48.943Z,1009.22
2018-10-12T03:08:24.228Z,1009.23
2018-10-12T03:08:59.662Z,1009.23
2018-10-12T03:09:34.902Z,1009.22
2018-10-12T03:10:10.110Z,1009.22
2018-10-12T03:10:45.323Z,1009.27
2018-10-12T03:11:20.852Z,1009.26
2018-10-12T03:11:56.094Z,1009.28
2018-10-12T03:12:31.704Z,1009.28
2018-10-12T03:13:07.015Z,1009.24
2018-10-12T03:13:42.367Z,1009.26
2018-10-12T03:14:17.386Z,1009.32
2018-10-12T03:14:53.149Z,1009.34
2018-10-12T03:15:28.545Z,1009.34
2018-10-12T03:16:04.091Z,1009.38
2018-10-12T03:16:40.727Z,1009.37
2018-10-12T03:17:16.066Z,1009.31
2018-10-12T03:17:51.498Z,1009.35
2018-10-12T03:18:27.208Z,1009.34
2018-10-12T03:19:02.780Z,1009.34
2018-10-12T03:19:38.507Z,1009.40
2018-10-12T03:20:13.879Z,1009.37
2018-10-12T03:20:49.166Z,1009.39
2018-10-12T03:21:24.909Z,1009.41
2018-10-12T03:22:00.499Z,1009.41
2018-10-12T03:22:35.955Z,1009.38
2018-10-12T03:23:11.480Z,1009.41
2018-10-12T03:23:47.239Z,1009.42
2018-10-12T03:24:22.692Z,1009.42
2018-10-12T03:24:58.005Z,1009.42
2018-10-12T03:25:33.548Z,1009.43
2018-10-12T03:26:08.760Z,1009.44
2018-10-12T03:26:43.807Z,1009.43
2018-10-12T03:27:19.217Z,1009.45
2018-10-12T03:27:54.534Z,1009.47
2018-10-12T03:28:30.125Z,1009.51
2018-10-12T03:29:05.274Z,1009.50
2018-10-12T03:29:40.951Z,1009.51
2018-10-12T03:30:16.257Z,1009.50
2018-10-12T03:30:51.687Z,1009.49
2018-10-12T03:31:26.900Z,1009.51
2018-10-12T03:32:02.429Z,1009.49
2018-10-12T03:32:38.048Z,1009.52
2018-10-12T03:33:13.287Z,1009.56
2018-10-12T03:33:48.851Z,1009.59
2018-10-12T03:34:24.373Z,1009.59
2018-10-12T03:35:00.217Z,1009.58
2018-10-12T03:35:35.455Z,1009.61
2018-10-12T03:36:10.831Z,1009.64
2018-10-12T03:36:46.564Z,1009.65
2018-10-12T03:37:22.253Z,1009.67
2018-10-12T03:37:57.317Z,1009.68
2018-10-12T03:38:32.854Z,1009.65
2018-10-12T03:39:08.273Z,1009.72
2018-10-12T03:39:43.995Z,1009.69
2018-10-12T03:40:19.755Z,1009.73
2018-10-12T03:40:55.003Z,1009.72
2018-10-12T03:41:30.246Z,1009.72
2018-10-12T03:42:05.662Z,1009.72
2018-10-12T03:42:41.001Z,1009.71
2018-10-12T03:43:16.345Z,1009.74
2018-10-12T03:43:51.899Z,1009.72
2018-10-12T03:44:27.118Z,1009.77
2018-10-12T03:45:02.350Z,1009.71
2018-10-12T03:45:39.681Z,1009.75
2018-10-12T03:46:14.925Z,1009.75
2018-10-12T03:46:50.127Z,1009.80
2018-10-12T03:47:25.595Z,1009.80
2018-10-12T03:48:01.038Z,1009.81
2018-10-12T03:48:36.694Z,1009.81
2018-10-12T03:49:12.129Z,1009.83
2018-10-12T03:49:47.944Z,1009.79
2018-10-12T03:50:23.293Z,1009.79
2018-10-12T03:50:58.698Z,1009.81
2018-10-12T03:51:34.335Z,1009.81
2018-10-12T03:52:09.868Z,1009.83
2018-10-12T03:52:45.318Z,1009.85
2018-10-12T03:53:20.960Z,1009.88
2018-10-12T03:53:55.987Z,1009.86
2018-10-12T03:54:31.418Z,1009.87
2018-10-12T03:55:06.738Z,1009.87
2018-10-12T03:55:42.308Z,1009.89
2018-10-12T03:56:17.845Z,1009.83
2018-10-12T03:56:53.000Z,1009.86
2018-10-12T03:57:28.427Z,1009.88
2018-10-12T03:58:03.960Z,1009.87
2018-10-12T03:58:39.263Z,1009.88
2018-10-12T03:59:14.542Z,1009.85
2018-10-12T03:59:49.985Z,1009.86
2018-10-12T04:00:25.208Z,1009.88
2018-10-12T04:01:00.373Z,1009.90
2018-10-12T04:01:35.682Z,1009.89
2018-10-12T04:02:11.048Z,1009.92
2018-10-12T04:02:47.769Z,1009.88
2018-10-12T04:03:23.160Z,1009.92
2018-10-12T04:03:58.365Z,1009.93
2018-10-12T04:04:33.599Z,1009.89
2018-10-12T04:05:09.037Z,1009.92
2018-10-12T04:05:44.974Z,1009.88
2018-10-12T04:06:20.139Z,1009.94
2018-10-12T04:06:55.452Z,1009.95
2018-10-12T04:07:30.802Z,1009.92
2018-10-12T04:08:06.234Z,1009.95
2018-10-12T04:08:42.221Z,1009.97
2018-10-12T04:09:17.786Z,1009.92
2018-10-12T04:09:53.030Z,1009.95
2018-10-12T04:10:28.525Z,1009.98
2018-10-12T04:11:03.909Z,1009.99
2018-10-12T04:11:39.234Z,1009.98
2018-10-12T04:12:14.666Z,1010.04
2018-10-12T04:12:49.893Z,1010.03
2018-10-12T04:13:25.017Z,1010.06
2018-10-12T04:14:00.140Z,1010.08
2018-10-12T04:14:35.437Z,1010.09
2018-10-12T04:15:10.969Z,1010.14
2018-10-12T04:15:46.296Z,1010.11
2018-10-12T04:16:21.975Z,1010.17
2018-10-12T04:16:57.290Z,1010.15
2018-10-12T04:17:33.032Z,1010.17
2018-10-12T04:18:08.663Z,1010.17
2018-10-12T04:18:44.005Z,1010.14
2018-10-12T04:19:19.467Z,1010.14
2018-10-12T04:19:54.900Z,1010.14
2018-10-12T04:20:30.037Z,1010.16
2018-10-12T04:21:05.185Z,1010.14
2018-10-12T04:21:40.807Z,1010.19
2018-10-12T04:22:16.220Z,1010.22
2018-10-12T04:22:51.873Z,1010.21
2018-10-12T04:23:27.041Z,1010.26
2018-10-12T04:24:02.897Z,1010.28
2018-10-12T04:24:38.042Z,1010.29
2018-10-12T04:25:13.267Z,1010.27
2018-10-12T04:25:48.695Z,1010.32
2018-10-12T04:26:26.121Z,1010.35
2018-10-12T04:27:01.604Z,1010.34
2018-10-12T04:27:37.847Z,1010.38
2018-10-12T04:28:13.415Z,1010.38
2018-10-12T04:28:48.915Z,1010.39
2018-10-12T04:29:24.231Z,1010.39
2018-10-12T04:29:59.610Z,1010.38
2018-10-12T04:30:35.223Z,1010.40
2018-10-12T04:31:10.703Z,1010.42
2018-10-12T04:31:46.208Z,1010.38
2018-10-12T04:32:21.703Z,1010.44
2018-10-12T04:32:57.321Z,1010.45
2018-10-12T04:33:32.565Z,1010.49
2018-10-12T04:34:07.713Z,1010.48
2018-10-12T04:34:42.702Z,1010.48
2018-10-12T04:35:18.041Z,1010.47
2018-10-12T04:35:53.652Z,1010.46
2018-10-12T04:36:29.324Z,1010.45
2018-10-12T04:37:04.950Z,1010.44
2018-10-12T04:37:40.283Z,1010.32
2018-10-12T04:38:15.780Z,1010.31
2018-10-12T04:38:50.908Z,1010.31
2018-10-12T04:39:26.322Z,1010.35
2018-10-12T04:40:02.170Z,1010.35
2018-10-12T04:40:37.320Z,1010.35
2018-10-12T04:41:12.763Z,1010.26
2018-10-12T04:41:48.014Z,1010.30
2018-10-12T04:42:23.415Z,1010.31
2018-10-12T04:42:59.043Z,1010.29
2018-10-12T04:43:34.867Z,1010.30
2018-10-12T04:44:10.305Z,1010.37
2018-10-12T04:44:45.714Z,1010.36
2018-10-12T04:45:21.071Z,1010.37
2018-10-12T04:45:56.495Z,1010.34
2018-10-12T04:46:31.961Z,1010.38
2018-10-12T04:47:07.415Z,1010.42
2018-10-12T04:47:42.841Z,1010.41
2018-10-12T04:48:18.194Z,1010.47
2018-10-12T04:48:53.412Z,1010.47
2018-10-12T04:49:28.818Z,1010.48
2018-10-12T04:50:04.260Z,1010.52
2018-10-12T04:50:39.644Z,1010.57
2018-10-12T04:51:14.920Z,1010.56
2018-10-12T04:51:50.283Z,1010.50
2018-10-12T04:52:25.830Z,1010.48
2018-10-12T04:53:01.148Z,1010.50
2018-10-12T04:53:36.550Z,1010.47
2018-10-12T04:54:11.921Z,1010.46
2018-10-12T04:54:47.797Z,1010.47
2018-10-12T04:55:22.779Z,1010.46
2018-10-12T04:55:58.442Z,1010.48
2018-10-12T04:56:33.861Z,1010.51
2018-10-12T04:57:09.294Z,1010.55
2018-10-12T04:57:45.354Z,1010.59
2018-10-12T04:58:20.684Z,1010.58
2018-10-12T04:58:55.968Z,1010.65
2018-10-12T04:59:31.478Z,1010.60
2018-10-12T05:00:06.941Z,1010.59
2018-10-12T05:00:43.513Z,1010.55
2018-10-12T05:01:19.181Z,1010.56
2018-10-12T05:01:54.643Z,1010.53
2018-10-12T05:02:30.095Z,1010.54
2018-10-12T05:03:05.916Z,1010.55
2018-10-12T05:03:41.257Z,1010.59
2018-10-12T05:04:16.871Z,1010.58
2018-10-12T05:04:51.891Z,1010.59
2018-10-12T05:05:27.629Z,1010.63
2018-10-12T05:06:02.849Z,1010.60
2018-10-12T05:06:38.195Z,1010.61
2018-10-12T05:07:13.512Z,1010.65
2018-10-12T05:07:49.077Z,1010.65
2018-10-12T05:08:24.581Z,1010.65
2018-10-12T05:08:59.950Z,1010.69
2018-10-12T05:09:35.377Z,1010.67
2018-10-12T05:10:10.718Z,1010.72
2018-10-12T05:10:45.929Z,1010.70
2018-10-12T05:11:21.095Z,1010.74
2018-10-12T05:11:56.646Z,1010.68
2018-10-12T05:12:32.160Z,1010.69
2018-10-12T05:13:07.606Z,1010.66
2018-10-12T05:13:43.235Z,1010.66
2018-10-12T05:14:18.702Z,1010.66
2018-10-12T05:14:54.219Z,1010.69
2018-10-12T05:15:29.643Z,1010.62
2018-10-12T05:16:04.980Z,1010.65
2018-10-12T05:16:40.435Z,1010.65
2018-10-12T05:17:15.539Z,1010.70
2018-10-12T05:17:50.761Z,1010.64
2018-10-12T05:18:26.101Z,1010.68
2018-10-12T05:19:01.431Z,1010.65
2018-10-12T05:19:36.780Z,1010.63
2018-10-12T05:20:11.893Z,1010.61
2018-10-12T05:20:47.469Z,1010.60
2018-10-12T05:21:23.077Z,1010.63
2018-10-12T05:21:58.419Z,1010.63
2018-10-12T05:22:33.817Z,1010.62
2018-10-12T05:23:09.455Z,1010.66
2018-10-12T05:23:44.761Z,1010.60
2018-10-12T05:24:20.074Z,1010.68
2018-10-12T05:24:55.318Z,1010.68
2018-10-12T05:25:30.730Z,1010.69
2018-10-12T05:26:06.297Z,1010.68
2018-10-12T05:26:41.613Z,1010.70
2018-10-12T05:27:16.975Z,1010.74
2018-10-12T05:27:52.215Z,1010.73
2018-10-12T05:28:27.539Z,1010.79
2018-10-12T05:29:02.751Z,1010.82
2018-10-12T05:29:38.423Z,1010.84
2018-10-12T05:30:13.851Z,1010.85
2018-10-12T05:30:48.930Z,1010.86
2018-10-12T05:31:24.405Z,1010.90
2018-10-12T05:32:00.001Z,1010.86
2018-10-12T05:32:35.337Z,1010.89
2018-10-12T05:33:10.548Z,1010.87
2018-10-12T05:33:45.978Z,1010.88
2018-10-12T05:34:21.096Z,1010.91
2018-10-12T05:34:56.231Z,1010.90
2018-10-12T05:35:31.539Z,1010.94
2018-10-12T05:36:06.759Z,1010.92
2018-10-12T05:36:42.061Z,1010.94
2018-10-12T05:37:17.729Z,1010.95
2018-10-12T05:37:53.074Z,1010.96
2018-10-12T05:38:28.702Z,1010.96
2018-10-12T05:39:04.253Z,1011.00
2018-10-12T05:39:39.453Z,1011.03
2018-10-12T05:40:14.926Z,1011.01
2018-10-12T05:40:50.345Z,1011.04
2018-10-12T05:41:25.933Z,1011.03
2018-10-12T05:42:01.152Z,1011.06
2018-10-12T05:42:36.518Z,1011.04
2018-10-12T05:43:12.410Z,1011.10
2018-10-12T05:43:47.810Z,1011.05
2018-10-12T05:44:23.098Z,1011.06
2018-10-12T05:44:58.407Z,1011.10
2018-10-12T05:45:33.755Z,1011.09
2018-10-12T05:46:09.175Z,1011.11
2018-10-12T05:46:44.649Z,1011.16
2018-10-12T05:47:19.794Z,1011.16
2018-10-12T05:47:55.293Z,1011.16
2018-10-12T05:48:30.749Z,1011.18
2018-10-12T05:49:06.477Z,1011.21
2018-10-12T05:49:41.824Z,1011.21
2018-10-12T05:50:17.032Z,1011.19
2018-10-12T05:50:52.292Z,1011.20
2018-10-12T05:51:27.527Z,1011.21
2018-10-12T05:52:03.158Z,1011.21
2018-10-12T05:52:38.604Z,1011.24
2018-10-12T05:53:14.372Z,1011.27
2018-10-12T05:53:50.229Z,1011.26
2018-10-12T05:54:25.572Z,1011.27
2018-10-12T05:55:01.206Z,1011.33
2018-10-12T05:55:36.540Z,1011.28
2018-10-12T05:56:12.091Z,1011.30
2018-10-12T05:56:47.500Z,1011.29
2018-10-12T05:57:22.939Z,1011.28
2018-10-12T05:57:58.260Z,1011.30
2018-10-12T05:58:33.682Z,1011.28
2018-10-12T05:59:09.011Z,1011.34
2018-10-12T05:59:44.348Z,1011.32
2018-10-12T06:00:19.581Z,1011.34
2018-10-12T06:00:55.344Z,1011.36
2018-10-12T06:01:30.719Z,1011.38
2018-10-12T06:02:06.061Z,1011.37
2018-10-12T06:02:41.347Z,1011.35
2018-10-12T06:03:16.644Z,1011.38
2018-10-12T06:03:52.091Z,1011.38
2018-10-12T06:04:27.300Z,1011.40
2018-10-12T06:05:02.537Z,1011.35
2018-10-12T06:05:38.065Z,1011.39
2018-10-12T06:06:13.668Z,1011.38
2018-10-12T06:06:48.830Z,1011.40
2018-10-12T06:07:24.994Z,1011.43
2018-10-12T06:08:00.440Z,1011.45
2018-10-12T06:08:35.650Z,1011.45
2018-10-12T06:09:11.585Z,1011.52
2018-10-12T06:09:47.079Z,1011.52
2018-10-12T06:10:22.124Z,1011.51
2018-10-12T06:11:00.136Z,1011.54
2018-10-12T06:11:35.411Z,1011.55
2018-10-12T06:12:10.857Z,1011.56
2018-10-12T06:12:47.079Z,1011.57
2018-10-12T06:13:23.090Z,1011.65
2018-10-12T06:13:58.497Z,1011.59
2018-10-12T06:14:34.375Z,1011.62
2018-10-12T06:15:09.425Z,1011.67
2018-10-12T06:15:44.820Z,1011.68
2018-10-12T06:16:20.076Z,1011.74
2018-10-12T06:16:56.168Z,1011.75
2018-10-12T06:17:31.512Z,1011.76
2018-10-12T06:18:06.620Z,1011.78
2018-10-12T06:18:41.973Z,1011.80
2018-10-12T06:19:17.710Z,1011.80
2018-10-12T06:19:53.240Z,1011.85
2018-10-12T06:20:28.870Z,1011.82
2018-10-12T06:21:04.249Z,1011.86
2018-10-12T06:21:39.849Z,1011.82
2018-10-12T06:22:15.210Z,1011.82
2018-10-12T06:22:50.725Z,1011.83
2018-10-12T06:23:26.055Z,1011.83
2018-10-12T06:24:01.309Z,1011.83
2018-10-12T06:24:37.224Z,1011.88
2018-10-12T06:25:12.558Z,1011.84
2018-10-12T06:25:48.321Z,1011.85
2018-10-12T06:26:23.789Z,1011.88
2018-10-12T06:26:59.350Z,1011.88
2018-10-12T06:27:34.555Z,1011.91
2018-10-12T06:28:10.079Z,1011.84
2018-10-12T06:28:45.710Z,1011.90
2018-10-12T06:29:21.309Z,1011.89
2018-10-12T06:29:56.868Z,1011.91
2018-10-12T06:30:32.420Z,1011.94
2018-10-12T06:31:08.073Z,1011.99
2018-10-12T06:31:43.393Z,1011.95
2018-10-12T06:32:19.426Z,1012.02
2018-10-12T06:32:54.815Z,1012.02
2018-10-12T06:33:29.961Z,1012.03
2018-10-12T06:34:05.296Z,1012.06
2018-10-12T06:34:40.815Z,1012.02
2018-10-12T06:35:15.969Z,1012.04
2018-10-12T06:35:51.814Z,1012.04
2018-10-12T06:36:27.175Z,1012.07
2018-10-12T06:37:02.908Z,1012.09
2018-10-12T06:37:38.413Z,1012.06
2018-10-12T06:38:13.576Z,1012.08
2018-10-12T06:38:49.295Z,1012.07
2018-10-12T06:39:24.740Z,1012.11
2018-10-12T06:39:59.927Z,1012.12
2018-10-12T06:40:35.181Z,1012.15
2018-10-12T06:41:10.630Z,1012.17
2018-10-12T06:41:46.116Z,1012.16
2018-10-12T06:42:21.401Z,1012.21
2018-10-12T06:42:56.753Z,1012.22
2018-10-12T06:43:32.358Z,1012.23
2018-10-12T06:44:08.171Z,1012.24
2018-10-12T06:44:43.519Z,1012.28
2018-10-12T06:45:18.848Z,1012.30
2018-10-12T06:45:54.372Z,1012.28
2018-10-12T06:46:29.850Z,1012.31
2018-10-12T06:47:05.372Z,1012.33
2018-10-12T06:47:40.811Z,1012.31
2018-10-12T06:48:16.106Z,1012.32
2018-10-12T06:48:51.673Z,1012.28
2018-10-12T06:49:27.181Z,1012.28
2018-10-12T06:50:02.423Z,1012.26
2018-10-12T06:50:37.751Z,1012.30
2018-10-12T06:51:13.348Z,1012.25
2018-10-12T06:51:48.781Z,1012.33
2018-10-12T06:52:23.925Z,1012.35
2018-10-12T06:52:59.250Z,1012.32
2018-10-12T06:53:34.386Z,1012.31
2018-10-12T06:54:09.826Z,1012.32
2018-10-12T06:54:45.245Z,1012.32
2018-10-12T06:55:20.492Z,1012.33
2018-10-12T06:55:55.807Z,1012.35
2018-10-12T06:56:31.261Z,1012.34
2018-10-12T06:57:06.685Z,1012.36
2018-10-12T06:57:42.026Z,1012.35
2018-10-12T06:58:17.152Z,1012.33
2018-10-12T06:58:52.605Z,1012.34
2018-10-12T06:59:27.865Z,1012.34
2018-10-12T07:00:03.200Z,1012.33
2018-10-12T07:00:39.210Z,1012.37
2018-10-12T07:01:14.566Z,1012.39
2018-10-12T07:01:50.018Z,1012.44
2018-10-12T07:02:25.267Z,1012.47
2018-10-12T07:03:00.642Z,1012.47
2018-10-12T07:03:35.857Z,1012.48
2018-10-12T07:04:11.214Z,1012.47
2018-10-12T07:04:46.731Z,1012.49
2018-10-12T07:05:22.496Z,1012.53
2018-10-12T07:05:57.836Z,1012.51
2018-10-12T07:06:33.172Z,1012.57
2018-10-12T07:07:08.833Z,1012.57
2018-10-12T07:07:44.666Z,1012.51
2018-10-12T07:08:20.440Z,1012.56
2018-10-12T07:08:55.957Z,1012.58